Weather at Kermizian Airport

Public forecast

Using degrees Fahrenheit for public forecast. Weather courtesy of forecast.io.

Closest aviation weather report (METAR) to Kermizian Airport

Closest report is Griffiss International Airport, 21.3 nm (39.5 km) WSW. Retrieved 2020/11/28 00:53 UTC (38 minutes ago):

KRME 280053Z 00000KT 9SM OVC048 06/05 A3000 RMK AO2 SLP161 T00610050

Closest aviation forecast (TAF) to Kermizian Airport

Closest forecast is Griffiss International Airport, 21.3 nm (39.5 km) WSW. Retrieved 2020-11-28 00:22 UTC (1 hour ago):

TAF KRME 272320Z 2800/2824 00000KT P6SM OVC035 FM280700 VRB03KT P6SM BKN018 OVC025 FM281700 27009KT P6SM OVC025 FM282200 26005KT P6SM SCT040